Time;durP1;ratioP1;P1;durP2;ratioP2;P2;SDS_P1;SDS_P2;PMS_P1;PMS_P2;Temp;Humidity;BMP_temperature;BMP_pressure;BME280_temperature;BME280_humidity;BME280_pressure;Samples;Min_cycle;Max_cycle;Signal;HPM_P1;HPM_P2
2024/01/07 00:02:16;;;;;;;11.97;8.87;;;;;;;;;;5052290;28;20214;-27
2024/01/07 00:04:51;;;;;;;11.07;7.90;;;;;;;;;;5050737;28;20230;-25
2024/01/07 00:07:21;;;;;;;11.70;8.50;;;;;;;;;;5044414;28;20224;-26
2024/01/07 00:25:27;;;;;;;11.73;8.20;;;;;;;;;;5024632;28;20242;-27
2024/01/07 00:28:07;;;;;;;12.17;8.67;;;;;;;;;;5025003;28;20202;-27
2024/01/07 00:30:42;;;;;;;12.50;8.40;;;;;;;;;;5029709;28;20206;-27
2024/01/07 00:33:12;;;;;;;13.17;8.53;;;;;;;;;;5031633;28;20217;-26
2024/01/07 00:35:46;;;;;;;13.60;9.67;;;;;;;;;;5033207;28;20309;-24
2024/01/07 00:38:20;;;;;;;12.97;8.90;;;;;;;;;;5033075;28;20225;-27
2024/01/07 00:40:51;;;;;;;15.27;10.27;;;;;;;;;;5024265;28;20229;-26
2024/01/07 00:43:27;;;;;;;13.07;8.47;;;;;;;;;;5032467;28;20211;-25
2024/01/07 00:46:03;;;;;;;11.90;8.47;;;;;;;;;;5032792;28;20229;-26
2024/01/07 00:48:54;;;;;;;13.07;9.00;;;;;;;;;;5029469;28;20209;-25
2024/01/07 00:51:41;;;;;;;12.03;8.00;;;;;;;;;;5030578;28;20210;-27
2024/01/07 00:54:16;;;;;;;15.17;9.27;;;;;;;;;;5017893;28;20668;-25
2024/01/07 00:56:54;;;;;;;12.57;7.83;;;;;;;;;;5032746;28;20297;-25
2024/01/07 00:59:31;;;;;;;15.23;9.27;;;;;;;;;;5028840;28;20222;-26
2024/01/07 01:02:04;;;;;;;14.30;8.90;;;;;;;;;;5028246;28;20206;-26
2024/01/07 01:04:32;;;;;;;14.90;9.40;;;;;;;;;;5018920;28;20279;-26
2024/01/07 01:07:16;;;;;;;12.07;8.07;;;;;;;;;;5030543;28;20211;-27
2024/01/07 01:09:47;;;;;;;13.80;8.30;;;;;;;;;;5024464;28;20203;-27
2024/01/07 01:12:23;;;;;;;15.30;9.77;;;;;;;;;;5030904;28;20214;-26
2024/01/07 01:15:16;;;;;;;13.47;8.97;;;;;;;;;;5029059;28;20233;-27
2024/01/07 01:17:52;;;;;;;12.73;8.37;;;;;;;;;;5024670;28;20199;-27
2024/01/07 01:20:25;;;;;;;12.87;9.17;;;;;;;;;;5031205;28;20253;-26
2024/01/07 01:23:00;;;;;;;13.90;8.40;;;;;;;;;;5021600;28;20207;-28
2024/01/07 01:25:36;;;;;;;14.83;9.10;;;;;;;;;;5046200;28;20252;-26
2024/01/07 01:28:06;;;;;;;9.57;7.23;;;;;;;;;;5051407;28;20275;-27
2024/01/07 01:30:41;;;;;;;14.53;8.77;;;;;;;;;;5048001;28;20236;-27
2024/01/07 01:35:57;;;;;;;10.10;7.83;;;;;;;;;;5070019;28;20229;-29
2024/01/07 01:38:33;;;;;;;15.53;9.10;;;;;;;;;;5072196;28;20211;-35
2024/01/07 01:41:11;;;;;;;12.73;8.10;;;;;;;;;;5070317;28;20235;-33
2024/01/07 01:43:39;;;;;;;12.57;8.27;;;;;;;;;;5063925;28;20204;-37
2024/01/07 01:46:14;;;;;;;12.67;9.53;;;;;;;;;;5072282;28;20225;-32
2024/01/07 01:48:53;;;;;;;12.97;7.70;;;;;;;;;;5063984;28;20224;-31
2024/01/07 01:51:26;;;;;;;10.80;7.47;;;;;;;;;;5066137;28;20221;-34
2024/01/07 01:53:57;;;;;;;10.67;7.30;;;;;;;;;;5060545;28;20251;-33
2024/01/07 01:59:00;;;;;;;10.70;7.43;;;;;;;;;;5017804;28;20298;-32
2024/01/07 02:01:32;;;;;;;13.33;8.07;;;;;;;;;;5003943;28;20212;-28
2024/01/07 02:04:05;;;;;;;10.23;7.83;;;;;;;;;;5023665;28;20207;-33
2024/01/07 02:06:38;;;;;;;12.47;8.23;;;;;;;;;;5011793;28;20235;-31
2024/01/07 02:09:20;;;;;;;13.63;8.00;;;;;;;;;;5006689;28;20266;-35
2024/01/07 02:12:04;;;;;;;13.10;8.53;;;;;;;;;;5005385;28;20221;-34
2024/01/07 02:14:37;;;;;;;12.07;7.70;;;;;;;;;;5011516;28;20318;-39
2024/01/07 02:17:08;;;;;;;12.13;8.67;;;;;;;;;;5012356;28;20298;-38
2024/01/07 02:19:48;;;;;;;13.70;8.17;;;;;;;;;;5005123;28;20234;-31
2024/01/07 02:22:20;;;;;;;11.57;8.20;;;;;;;;;;5005776;28;20218;-34
2024/01/07 02:24:52;;;;;;;10.20;7.13;;;;;;;;;;5014750;28;20235;-37
2024/01/07 02:27:26;;;;;;;12.43;7.60;;;;;;;;;;5015321;28;20700;-35
2024/01/07 02:30:01;;;;;;;10.40;7.33;;;;;;;;;;5015555;28;20234;-33
2024/01/07 02:32:36;;;;;;;10.97;8.73;;;;;;;;;;5012066;28;20211;-33
2024/01/07 02:35:13;;;;;;;13.23;7.93;;;;;;;;;;5008896;28;20223;-35
2024/01/07 02:37:48;;;;;;;11.23;8.10;;;;;;;;;;5007717;28;20206;-35
2024/01/07 02:40:24;;;;;;;10.73;7.10;;;;;;;;;;5010632;28;20238;-33
2024/01/07 02:43:02;;;;;;;12.57;7.70;;;;;;;;;;5010750;28;20217;-35
2024/01/07 02:45:37;;;;;;;11.97;7.43;;;;;;;;;;5015173;28;20231;-36
2024/01/07 02:48:08;;;;;;;13.13;8.23;;;;;;;;;;5015298;28;20211;-39
2024/01/07 02:50:47;;;;;;;10.90;7.57;;;;;;;;;;5002365;28;20200;-33
2024/01/07 02:53:20;;;;;;;12.90;7.53;;;;;;;;;;4999887;28;20215;-35
2024/01/07 02:58:28;;;;;;;9.77;6.93;;;;;;;;;;5092445;28;20299;-33
2024/01/07 03:00:59;;;;;;;10.73;6.77;;;;;;;;;;5077604;28;20319;-31
2024/01/07 03:03:33;;;;;;;9.57;7.27;;;;;;;;;;5084520;28;20209;-33
2024/01/07 03:06:13;;;;;;;9.80;7.10;;;;;;;;;;5075373;28;20228;-35
2024/01/07 03:08:48;;;;;;;11.00;7.50;;;;;;;;;;5086927;28;20207;-35
2024/01/07 03:11:21;;;;;;;9.80;7.07;;;;;;;;;;5093128;28;20212;-36
2024/01/07 03:14:02;;;;;;;10.67;7.57;;;;;;;;;;5094587;28;20209;-36
2024/01/07 03:16:35;;;;;;;11.80;7.57;;;;;;;;;;5094987;28;20204;-36
2024/01/07 03:29:41;;;;;;;10.43;6.90;;;;;;;;;;5044216;28;20278;-32
2024/01/07 03:32:23;;;;;;;13.30;7.30;;;;;;;;;;5049673;28;20576;-33
2024/01/07 03:40:05;;;;;;;8.90;6.37;;;;;;;;;;5082163;28;20232;-31
2024/01/07 03:42:45;;;;;;;8.03;5.80;;;;;;;;;;5086309;28;20259;-30
2024/01/07 03:45:31;;;;;;;9.70;6.70;;;;;;;;;;5094253;28;20240;-33
2024/01/07 03:48:09;;;;;;;9.87;7.00;;;;;;;;;;5094049;28;20212;-35
2024/01/07 03:50:55;;;;;;;9.77;6.60;;;;;;;;;;5093785;28;20200;-33
2024/01/07 03:53:33;;;;;;;9.03;5.67;;;;;;;;;;5082305;28;20204;-33
2024/01/07 03:56:05;;;;;;;6.70;5.50;;;;;;;;;;5093804;28;20224;-32
2024/01/07 04:03:57;;;;;;;6.27;5.50;;;;;;;;;;5070250;28;20225;-27
2024/01/07 04:06:34;;;;;;;10.47;5.90;;;;;;;;;;5053158;28;20547;-28
2024/01/07 04:09:40;;;;;;;10.13;6.27;;;;;;;;;;5052434;28;20206;-26
2024/01/07 04:12:16;;;;;;;8.10;5.63;;;;;;;;;;5048047;28;20226;-27
2024/01/07 04:14:54;;;;;;;7.57;5.63;;;;;;;;;;5044904;28;20226;-28
2024/01/07 04:17:28;;;;;;;8.57;6.00;;;;;;;;;;5053009;28;20308;-27
2024/01/07 04:20:05;;;;;;;8.23;5.83;;;;;;;;;;5053403;28;20228;-28
2024/01/07 04:25:08;;;;;;;12.00;6.00;;;;;;;;;;5059996;28;20225;-33
2024/01/07 04:27:51;;;;;;;10.03;6.20;;;;;;;;;;5073405;28;20306;-36
2024/01/07 04:30:27;;;;;;;7.50;5.67;;;;;;;;;;5073125;28;20212;-35
2024/01/07 04:33:05;;;;;;;11.50;6.13;;;;;;;;;;5065391;28;20201;-34
2024/01/07 04:38:25;;;;;;;10.87;6.80;;;;;;;;;;5072773;28;20221;-31
2024/01/07 04:40:55;;;;;;;7.13;6.17;;;;;;;;;;5061812;28;20224;-33
2024/01/07 04:43:29;;;;;;;8.83;5.97;;;;;;;;;;5062938;28;20259;-32
2024/01/07 04:46:04;;;;;;;9.20;7.53;;;;;;;;;;5071942;28;20252;-37
2024/01/07 04:48:46;;;;;;;8.77;6.17;;;;;;;;;;5072515;28;20204;-31
2024/01/07 04:56:24;;;;;;;9.57;6.50;;;;;;;;;;5051351;28;20225;-33
2024/01/07 04:59:06;;;;;;;9.00;6.50;;;;;;;;;;5043669;28;20285;-33
2024/01/07 05:04:29;;;;;;;9.10;6.20;;;;;;;;;;5050346;28;20296;-27
2024/01/07 05:07:02;;;;;;;8.97;6.20;;;;;;;;;;5052987;28;20224;-27
2024/01/07 05:09:46;;;;;;;9.70;7.53;;;;;;;;;;5037785;28;20237;-26
2024/01/07 05:14:48;;;;;;;8.17;5.87;;;;;;;;;;5003808;28;20231;-30
2024/01/07 05:17:26;;;;;;;9.87;6.83;;;;;;;;;;5012844;28;20216;-33
2024/01/07 05:30:28;;;;;;;9.70;6.07;;;;;;;;;;5048593;28;20221;-31
2024/01/07 05:33:09;;;;;;;7.93;5.93;;;;;;;;;;5044749;28;20277;-30
2024/01/07 05:35:46;;;;;;;10.27;6.63;;;;;;;;;;5052310;28;20233;-32
2024/01/07 05:38:21;;;;;;;7.80;4.73;;;;;;;;;;5037039;28;20300;-31
2024/01/07 05:40:57;;;;;;;10.40;7.00;;;;;;;;;;5041322;28;20279;-33
2024/01/07 05:43:52;;;;;;;8.17;5.70;;;;;;;;;;5043015;28;20324;-34
2024/01/07 05:46:27;;;;;;;8.03;5.47;;;;;;;;;;5052124;28;20210;-33
2024/01/07 05:49:07;;;;;;;7.57;6.20;;;;;;;;;;5043642;28;20202;-30
2024/01/07 05:51:46;;;;;;;7.40;6.10;;;;;;;;;;5042923;28;20539;-36
2024/01/07 05:54:23;;;;;;;8.47;5.83;;;;;;;;;;5046180;28;20279;-33
2024/01/07 05:56:56;;;;;;;11.00;6.70;;;;;;;;;;5051966;28;20201;-34
2024/01/07 05:59:33;;;;;;;7.97;5.93;;;;;;;;;;5050097;28;20206;-39
2024/01/07 06:02:16;;;;;;;9.47;7.90;;;;;;;;;;5049246;28;20201;-35
2024/01/07 06:07:30;;;;;;;8.47;6.60;;;;;;;;;;5048359;28;20217;-37
2024/01/07 06:10:10;;;;;;;7.37;5.73;;;;;;;;;;5048276;28;20206;-32
2024/01/07 06:12:54;;;;;;;9.70;6.77;;;;;;;;;;5052576;28;20214;-35
2024/01/07 06:15:26;;;;;;;8.17;5.90;;;;;;;;;;5051321;28;20230;-33
2024/01/07 06:18:05;;;;;;;8.90;5.73;;;;;;;;;;5055950;28;20206;-37
2024/01/07 06:33:57;;;;;;;8.30;6.90;;;;;;;;;;5073366;28;20217;-29
2024/01/07 06:36:41;;;;;;;8.13;5.73;;;;;;;;;;5055160;28;20367;-34
2024/01/07 06:39:14;;;;;;;8.10;5.73;;;;;;;;;;5045754;28;20221;-33
2024/01/07 06:41:43;;;;;;;7.57;6.60;;;;;;;;;;5048912;28;20233;-35
2024/01/07 06:44:12;;;;;;;6.87;5.87;;;;;;;;;;5054872;28;20230;-33
2024/01/07 06:46:47;;;;;;;7.70;5.97;;;;;;;;;;5055488;28;20210;-38
2024/01/07 06:49:19;;;;;;;11.67;7.80;;;;;;;;;;5051923;28;20205;-31
2024/01/07 06:51:58;;;;;;;8.33;6.67;;;;;;;;;;5053840;28;20213;-33
2024/01/07 06:54:33;;;;;;;8.93;6.60;;;;;;;;;;5049785;28;20238;-33
2024/01/07 06:57:09;;;;;;;9.20;6.80;;;;;;;;;;5047455;28;20240;-33
2024/01/07 06:59:45;;;;;;;10.50;6.67;;;;;;;;;;5054596;28;20308;-31
2024/01/07 07:02:19;;;;;;;9.07;6.10;;;;;;;;;;5051810;28;20295;-36
2024/01/07 07:05:01;;;;;;;7.50;6.27;;;;;;;;;;5051467;28;20321;-33
2024/01/07 07:07:36;;;;;;;7.87;5.80;;;;;;;;;;5053296;28;20320;-32
2024/01/07 07:10:08;;;;;;;9.00;6.43;;;;;;;;;;5046869;28;20206;-31
2024/01/07 07:12:43;;;;;;;7.37;5.57;;;;;;;;;;5052451;28;20260;-33
2024/01/07 07:17:43;;;;;;;9.57;6.63;;;;;;;;;;5053047;28;20227;-39
2024/01/07 07:20:23;;;;;;;9.43;7.20;;;;;;;;;;5052891;28;20241;-36
2024/01/07 07:25:28;;;;;;;9.47;7.00;;;;;;;;;;5072421;28;20260;-34
2024/01/07 07:28:17;;;;;;;9.00;6.37;;;;;;;;;;5063279;28;20208;-33
2024/01/07 07:31:06;;;;;;;8.77;6.07;;;;;;;;;;5064781;28;20201;-30
2024/01/07 07:33:38;;;;;;;10.37;7.23;;;;;;;;;;5059574;28;20213;-31
2024/01/07 07:36:25;;;;;;;7.87;6.00;;;;;;;;;;5066444;28;20233;-37
2024/01/07 07:39:02;;;;;;;8.33;5.60;;;;;;;;;;5072529;28;20201;-34
2024/01/07 07:41:31;;;;;;;8.87;5.40;;;;;;;;;;5074069;28;20260;-38
2024/01/07 07:44:06;;;;;;;8.67;6.23;;;;;;;;;;5070784;28;20236;-33
2024/01/07 07:46:41;;;;;;;8.90;6.20;;;;;;;;;;5070021;28;20213;-32
2024/01/07 07:49:19;;;;;;;8.47;5.17;;;;;;;;;;5062834;28;20205;-32
2024/01/07 07:51:55;;;;;;;8.23;5.73;;;;;;;;;;5067184;28;20271;-35
2024/01/07 07:54:26;;;;;;;9.27;5.60;;;;;;;;;;5072373;28;20231;-34
2024/01/07 07:56:56;;;;;;;7.30;5.50;;;;;;;;;;5073254;28;20248;-31
2024/01/07 08:07:14;;;;;;;2.93;2.53;;;;;;;;;;5051511;28;20218;-29
2024/01/07 08:09:44;;;;;;;6.73;5.40;;;;;;;;;;5054126;28;20206;-26
2024/01/07 08:12:24;;;;;;;7.10;4.87;;;;;;;;;;5051389;28;20202;-28
2024/01/07 08:15:02;;;;;;;7.23;5.00;;;;;;;;;;5053109;28;20226;-27
2024/01/07 08:17:34;;;;;;;6.70;4.83;;;;;;;;;;5045351;28;20263;-28
2024/01/07 08:20:08;;;;;;;8.57;5.50;;;;;;;;;;5043469;28;20202;-29
2024/01/07 08:22:44;;;;;;;8.67;5.37;;;;;;;;;;5051099;28;20204;-29
2024/01/07 08:25:17;;;;;;;7.33;4.77;;;;;;;;;;5045789;28;20225;-28
2024/01/07 08:27:51;;;;;;;7.40;4.43;;;;;;;;;;5051753;28;20201;-28
2024/01/07 08:30:20;;;;;;;9.10;5.57;;;;;;;;;;5046550;28;20295;-28
2024/01/07 08:32:58;;;;;;;7.30;5.40;;;;;;;;;;5050350;28;20210;-27
2024/01/07 08:35:32;;;;;;;7.50;4.90;;;;;;;;;;5052804;28;20236;-27
2024/01/07 08:38:04;;;;;;;5.40;4.90;;;;;;;;;;5050198;28;20202;-27
2024/01/07 08:40:33;;;;;;;4.03;2.00;;;;;;;;;;5041876;28;20210;-27
2024/01/07 08:43:08;;;;;;;7.10;4.73;;;;;;;;;;5051728;28;20205;-28
2024/01/07 08:45:43;;;;;;;7.33;5.00;;;;;;;;;;5044462;28;20225;-27
2024/01/07 08:48:17;;;;;;;6.47;4.30;;;;;;;;;;5039418;28;20209;-28
2024/01/07 08:50:49;;;;;;;70.87;37.67;;;;;;;;;;5051180;28;20221;-26
2024/01/07 08:53:25;;;;;;;12.73;7.30;;;;;;;;;;5053157;28;20201;-26
2024/01/07 08:55:54;;;;;;;10.43;5.80;;;;;;;;;;5039323;28;20240;-26
2024/01/07 08:58:28;;;;;;;8.23;5.90;;;;;;;;;;5052340;28;20256;-28
2024/01/07 09:00:59;;;;;;;8.63;4.87;;;;;;;;;;5051928;28;20245;-28
2024/01/07 09:03:41;;;;;;;16.93;9.63;;;;;;;;;;5047823;28;20206;-28
2024/01/07 09:06:11;;;;;;;17.60;9.40;;;;;;;;;;5048408;28;20234;-27
2024/01/07 09:08:45;;;;;;;7.47;4.00;;;;;;;;;;5044989;28;20213;-26
2024/01/07 09:11:16;;;;;;;7.53;5.03;;;;;;;;;;5045209;28;20213;-26
2024/01/07 09:13:52;;;;;;;10.17;5.87;;;;;;;;;;5045605;28;20535;-28
2024/01/07 09:16:36;;;;;;;8.33;4.53;;;;;;;;;;5041648;28;20221;-27
2024/01/07 09:19:09;;;;;;;10.43;7.30;;;;;;;;;;5035829;28;20290;-26
2024/01/07 09:21:44;;;;;;;6.30;4.47;;;;;;;;;;5037268;28;20286;-27
2024/01/07 09:26:46;;;;;;;9.83;8.83;;;;;;;;;;5070177;28;20212;-32
2024/01/07 09:31:49;;;;;;;7.17;5.93;;;;;;;;;;5026336;28;20222;-33
2024/01/07 09:34:26;;;;;;;6.00;4.90;;;;;;;;;;5020684;28;20276;-34
2024/01/07 09:36:55;;;;;;;4.63;4.23;;;;;;;;;;5035514;28;20279;-35
2024/01/07 09:39:29;;;;;;;7.97;7.17;;;;;;;;;;5030726;28;20267;-32
2024/01/07 09:42:04;;;;;;;6.63;6.00;;;;;;;;;;5032964;28;20254;-37
2024/01/07 09:44:42;;;;;;;5.70;5.13;;;;;;;;;;5027950;28;20272;-36
2024/01/07 09:47:12;;;;;;;6.30;5.20;;;;;;;;;;5036106;28;20240;-35
2024/01/07 09:49:53;;;;;;;7.43;5.23;;;;;;;;;;5022136;28;20217;-34
2024/01/07 09:52:23;;;;;;;4.97;4.27;;;;;;;;;;5024667;28;20225;-32
2024/01/07 09:54:59;;;;;;;5.27;4.37;;;;;;;;;;5032433;28;20290;-34
2024/01/07 09:57:37;;;;;;;7.77;6.43;;;;;;;;;;5036652;28;20264;-34
2024/01/07 10:00:08;;;;;;;7.40;5.43;;;;;;;;;;5017932;28;20881;-30
2024/01/07 10:02:43;;;;;;;5.00;4.33;;;;;;;;;;5031114;28;20230;-31
2024/01/07 10:05:14;;;;;;;5.43;4.20;;;;;;;;;;5029273;28;20230;-31
2024/01/07 10:07:47;;;;;;;6.20;4.57;;;;;;;;;;5026290;28;20290;-33
2024/01/07 10:10:20;;;;;;;4.47;3.37;;;;;;;;;;5028311;28;20212;-31
2024/01/07 10:12:57;;;;;;;5.63;4.67;;;;;;;;;;5027052;28;20209;-34
2024/01/07 10:15:33;;;;;;;3.63;3.07;;;;;;;;;;5035534;28;20233;-32
2024/01/07 10:18:05;;;;;;;5.13;4.03;;;;;;;;;;5035355;28;20210;-32
2024/01/07 10:20:35;;;;;;;4.93;4.03;;;;;;;;;;5033022;28;20262;-35
2024/01/07 10:23:10;;;;;;;6.33;4.30;;;;;;;;;;5030406;28;20234;-30
2024/01/07 10:25:49;;;;;;;6.90;4.30;;;;;;;;;;5022530;28;20222;-34
2024/01/07 10:28:25;;;;;;;3.93;3.40;;;;;;;;;;5024050;28;20306;-31
2024/01/07 10:31:00;;;;;;;4.60;3.27;;;;;;;;;;5020808;28;20229;-35
2024/01/07 10:33:34;;;;;;;6.63;4.43;;;;;;;;;;5027803;28;20276;-34
2024/01/07 10:36:14;;;;;;;6.20;4.30;;;;;;;;;;5082649;22;20243;-35
2024/01/07 10:39:07;;;;;;;4.43;3.83;;;;;;;;;;5056139;28;20206;-30
2024/01/07 10:41:43;;;;;;;5.43;3.53;;;;;;;;;;5064442;28;20248;-36
2024/01/07 10:44:22;;;;;;;6.37;3.67;;;;;;;;;;5047072;28;20217;-34
2024/01/07 10:47:04;;;;;;;6.27;4.50;;;;;;;;;;5043194;28;20205;-30
2024/01/07 10:49:44;;;;;;;4.90;3.40;;;;;;;;;;5048697;28;20209;-36
2024/01/07 10:52:16;;;;;;;6.40;3.33;;;;;;;;;;5042712;28;20210;-39
2024/01/07 10:54:53;;;;;;;6.93;5.00;;;;;;;;;;5051293;23;20296;-37
2024/01/07 10:57:31;;;;;;;6.03;3.60;;;;;;;;;;5047094;28;20204;-37
2024/01/07 11:13:03;;;;;;;6.17;4.17;;;;;;;;;;5051585;28;20209;-29
2024/01/07 11:15:58;;;;;;;4.13;2.60;;;;;;;;;;5024469;28;20228;-25
2024/01/07 11:18:35;;;;;;;11.20;4.60;;;;;;;;;;5027498;28;20249;-27
2024/01/07 11:21:33;;;;;;;5.60;4.47;;;;;;;;;;5034493;28;20217;-25
2024/01/07 11:24:10;;;;;;;6.73;5.30;;;;;;;;;;5030784;28;20214;-28
2024/01/07 11:29:32;;;;;;;5.33;3.57;;;;;;;;;;5034396;28;20311;-27
2024/01/07 11:32:12;;;;;;;4.33;3.50;;;;;;;;;;5030926;28;20202;-26
2024/01/07 11:34:51;;;;;;;5.63;4.03;;;;;;;;;;5021903;28;20229;-25
2024/01/07 11:37:22;;;;;;;6.40;4.50;;;;;;;;;;5026918;28;20217;-26
2024/01/07 11:39:56;;;;;;;5.80;4.20;;;;;;;;;;5034905;28;20206;-26
2024/01/07 11:42:41;;;;;;;6.90;4.00;;;;;;;;;;5026334;28;20222;-27
2024/01/07 11:45:31;;;;;;;4.70;4.03;;;;;;;;;;5023887;28;20228;-26
2024/01/07 11:48:10;;;;;;;5.30;4.27;;;;;;;;;;5031166;28;20595;-25
2024/01/07 11:50:43;;;;;;;6.97;3.63;;;;;;;;;;5033749;28;20203;-27
2024/01/07 11:53:20;;;;;;;5.50;4.10;;;;;;;;;;5031530;28;20663;-26
2024/01/07 11:55:55;;;;;;;4.77;3.80;;;;;;;;;;5020547;28;20226;-28
2024/01/07 11:58:33;;;;;;;2.60;2.33;;;;;;;;;;5034312;28;20215;-27
2024/01/07 12:01:11;;;;;;;5.33;3.40;;;;;;;;;;5031970;28;20305;-26
2024/01/07 12:03:45;;;;;;;5.70;3.70;;;;;;;;;;5029048;28;20276;-30
2024/01/07 12:06:30;;;;;;;5.40;3.57;;;;;;;;;;5031094;28;20739;-29
2024/01/07 12:19:34;;;;;;;5.07;4.20;;;;;;;;;;5030621;28;20679;-28
2024/01/07 12:22:09;;;;;;;4.20;3.63;;;;;;;;;;5031489;28;20248;-28
2024/01/07 12:24:51;;;;;;;3.63;3.10;;;;;;;;;;5027228;28;20308;-28
2024/01/07 12:27:22;;;;;;;6.53;4.40;;;;;;;;;;5032419;28;20241;-27
2024/01/07 12:30:02;;;;;;;4.53;3.90;;;;;;;;;;5032534;28;20225;-28
2024/01/07 12:32:35;;;;;;;4.77;3.90;;;;;;;;;;5030096;28;20563;-26
2024/01/07 12:35:16;;;;;;;5.67;3.70;;;;;;;;;;5023002;28;20235;-28
2024/01/07 12:38:05;;;;;;;4.77;3.90;;;;;;;;;;5032906;28;20241;-28
2024/01/07 12:40:39;;;;;;;4.53;3.97;;;;;;;;;;5026306;28;20222;-29
2024/01/07 12:43:10;;;;;;;5.40;3.60;;;;;;;;;;5031229;28;20276;-27
2024/01/07 12:46:01;;;;;;;7.17;3.80;;;;;;;;;;5068395;22;20232;-28
2024/01/07 12:48:35;;;;;;;6.00;3.87;;;;;;;;;;5064822;28;20213;-26
2024/01/07 12:51:08;;;;;;;6.63;4.20;;;;;;;;;;5073106;28;20209;-28
2024/01/07 12:53:44;;;;;;;7.10;3.90;;;;;;;;;;5066687;28;20212;-27
2024/01/07 12:56:18;;;;;;;5.00;4.50;;;;;;;;;;5061751;22;20328;-28
2024/01/07 12:58:52;;;;;;;5.87;4.13;;;;;;;;;;5052477;28;20295;-27
2024/01/07 13:01:21;;;;;;;5.00;3.93;;;;;;;;;;5049612;28;20212;-28
2024/01/07 13:06:28;;;;;;;5.60;3.67;;;;;;;;;;5057473;22;20234;-28
2024/01/07 13:09:05;;;;;;;6.53;4.60;;;;;;;;;;5044602;28;20230;-26
2024/01/07 13:11:47;;;;;;;7.23;4.77;;;;;;;;;;5045677;28;20225;-27
2024/01/07 13:14:25;;;;;;;6.90;5.10;;;;;;;;;;5059927;22;20301;-26
2024/01/07 13:17:06;;;;;;;7.23;4.57;;;;;;;;;;5047701;28;20208;-28
2024/01/07 13:20:06;;;;;;;13.17;8.37;;;;;;;;;;5052315;28;20208;-28
2024/01/07 13:22:47;;;;;;;5.93;3.90;;;;;;;;;;5045766;28;20219;-26
2024/01/07 13:25:32;;;;;;;5.03;3.40;;;;;;;;;;5078899;22;20259;-27
2024/01/07 13:28:10;;;;;;;7.67;5.40;;;;;;;;;;5051506;28;20201;-27
2024/01/07 13:30:44;;;;;;;6.67;4.47;;;;;;;;;;5041501;28;20626;-27
2024/01/07 13:33:33;;;;;;;7.00;3.77;;;;;;;;;;5051146;28;20255;-28
2024/01/07 13:36:08;;;;;;;3.87;3.27;;;;;;;;;;5050416;28;20226;-28
2024/01/07 13:38:51;;;;;;;3.90;2.97;;;;;;;;;;5044830;28;20209;-27
2024/01/07 13:41:29;;;;;;;3.57;3.07;;;;;;;;;;5052043;28;20221;-28
2024/01/07 13:48:57;;;;;;;8.40;5.00;;;;;;;;;;5049851;28;20210;-36
2024/01/07 13:51:27;;;;;;;7.83;5.87;;;;;;;;;;5040862;28;20221;-34
2024/01/07 14:04:15;;;;;;;8.97;6.13;;;;;;;;;;5047804;28;20236;-27
2024/01/07 14:14:37;;;;;;;7.83;4.63;;;;;;;;;;5025278;28;20227;-34
2024/01/07 14:17:14;;;;;;;6.33;4.57;;;;;;;;;;5030200;28;20210;-31
2024/01/07 14:19:55;;;;;;;8.13;5.30;;;;;;;;;;5033914;28;20206;-32
2024/01/07 14:22:51;;;;;;;5.07;4.07;;;;;;;;;;5032239;28;20223;-31
2024/01/07 14:28:27;;;;;;;3.67;3.07;;;;;;;;;;5034154;28;20214;-35
2024/01/07 14:31:06;;;;;;;8.70;6.67;;;;;;;;;;5026217;28;20214;-32
2024/01/07 14:33:43;;;;;;;8.27;5.77;;;;;;;;;;5026877;28;20253;-36
2024/01/07 14:36:27;;;;;;;7.30;5.37;;;;;;;;;;5026269;28;20245;-32
2024/01/07 14:44:10;;;;;;;10.63;7.23;;;;;;;;;;5025412;28;20226;-33
2024/01/07 14:46:43;;;;;;;9.20;6.93;;;;;;;;;;5027800;28;20211;-32
2024/01/07 14:49:20;;;;;;;9.50;6.63;;;;;;;;;;5026964;28;20206;-31
2024/01/07 14:52:07;;;;;;;5.60;4.00;;;;;;;;;;5035236;28;20210;-35
2024/01/07 14:54:46;;;;;;;6.93;4.60;;;;;;;;;;5020238;23;20308;-31
2024/01/07 14:57:28;;;;;;;7.03;5.50;;;;;;;;;;5032394;28;20218;-36
2024/01/07 15:00:05;;;;;;;9.23;5.20;;;;;;;;;;5034885;28;20265;-33
2024/01/07 15:03:05;;;;;;;5.47;3.87;;;;;;;;;;5022692;28;20230;-34
2024/01/07 15:05:48;;;;;;;7.93;5.60;;;;;;;;;;5031621;28;20305;-33
2024/01/07 15:08:38;;;;;;;6.37;5.37;;;;;;;;;;5032555;28;20210;-34
2024/01/07 15:11:10;;;;;;;7.13;5.27;;;;;;;;;;5034914;28;20278;-33
2024/01/07 15:13:44;;;;;;;7.37;5.00;;;;;;;;;;5033558;28;20229;-32
2024/01/07 15:16:20;;;;;;;6.70;4.30;;;;;;;;;;5059402;22;20241;-32
2024/01/07 15:18:54;;;;;;;8.40;5.53;;;;;;;;;;5047555;28;20259;-30
2024/01/07 15:21:28;;;;;;;7.93;5.57;;;;;;;;;;5053959;28;20205;-38
2024/01/07 15:26:34;;;;;;;5.70;3.80;;;;;;;;;;5072105;28;20270;-27
2024/01/07 15:42:19;;;;;;;6.40;4.83;;;;;;;;;;5091989;28;20213;-29
2024/01/07 15:45:03;;;;;;;6.83;5.00;;;;;;;;;;5083439;28;20307;-29
2024/01/07 15:47:43;;;;;;;;;;;;;;;;;;;;;
2024/01/07 16:00:39;;;;;;;8.37;5.37;;;;;;;;;;738906;22;20545;-28
2024/01/07 16:06:05;;;;;;;7.07;5.13;;;;;;;;;;5064615;28;20225;-27
2024/01/07 16:08:42;;;;;;;7.87;5.40;;;;;;;;;;5068862;28;20308;-28
2024/01/07 16:11:30;;;;;;;8.20;5.60;;;;;;;;;;5073743;28;20208;-26
2024/01/07 16:14:08;;;;;;;49.40;19.73;;;;;;;;;;5064318;28;20217;-27
2024/01/07 16:16:41;;;;;;;13.63;6.97;;;;;;;;;;5073043;28;20201;-25
2024/01/07 16:19:30;;;;;;;14.07;8.57;;;;;;;;;;5073171;28;20205;-27
2024/01/07 16:22:13;;;;;;;9.37;5.97;;;;;;;;;;5066292;28;20221;-26
2024/01/07 16:24:47;;;;;;;7.90;4.97;;;;;;;;;;5064686;28;20229;-28
2024/01/07 16:27:20;;;;;;;7.37;4.80;;;;;;;;;;5073052;28;20209;-29
2024/01/07 16:29:54;;;;;;;8.87;5.63;;;;;;;;;;5065353;28;20212;-27
2024/01/07 16:35:15;;;;;;;7.53;5.63;;;;;;;;;;5063528;28;20260;-29
2024/01/07 16:37:47;;;;;;;8.23;4.87;;;;;;;;;;5059995;28;20251;-28
2024/01/07 16:40:26;;;;;;;5.47;4.50;;;;;;;;;;5072909;28;20209;-26
2024/01/07 16:42:54;;;;;;;8.93;4.40;;;;;;;;;;5064834;28;20255;-27
2024/01/07 16:45:23;;;;;;;5.60;4.17;;;;;;;;;;5067164;28;20220;-28
2024/01/07 16:55:45;;;;;;;4.37;3.37;;;;;;;;;;5060870;28;20282;-28
2024/01/07 16:58:19;;;;;;;4.40;3.73;;;;;;;;;;5071689;28;20209;-26
2024/01/07 17:00:47;;;;;;;6.37;3.67;;;;;;;;;;5064709;28;20205;-28
2024/01/07 17:03:27;;;;;;;4.90;3.87;;;;;;;;;;5066527;28;20221;-29
2024/01/07 17:06:07;;;;;;;4.47;2.73;;;;;;;;;;5060537;28;20232;-27
2024/01/07 17:08:58;;;;;;;3.83;3.40;;;;;;;;;;5068364;28;20205;-26
2024/01/07 17:11:39;;;;;;;2.87;2.53;;;;;;;;;;5072006;28;20208;-28
2024/01/07 17:14:19;;;;;;;4.40;2.50;;;;;;;;;;5066031;28;20285;-28
2024/01/07 17:16:56;;;;;;;3.33;2.73;;;;;;;;;;5071743;28;20216;-28
2024/01/07 17:19:25;;;;;;;4.97;2.80;;;;;;;;;;5071878;28;20220;-27
2024/01/07 17:22:01;;;;;;;3.10;1.87;;;;;;;;;;5071991;28;20263;-28
2024/01/07 17:32:22;;;;;;;4.43;3.43;;;;;;;;;;5059092;28;20237;-28
2024/01/07 17:40:01;;;;;;;5.00;4.07;;;;;;;;;;5049818;28;20253;-25
2024/01/07 17:42:37;;;;;;;6.83;4.50;;;;;;;;;;5041964;28;20220;-26
2024/01/07 17:45:11;;;;;;;4.67;3.30;;;;;;;;;;5058976;22;20240;-29
2024/01/07 17:47:46;;;;;;;3.87;2.97;;;;;;;;;;5061243;28;20243;-27
2024/01/07 17:50:16;;;;;;;3.73;1.77;;;;;;;;;;5066214;28;20216;-26
2024/01/07 17:52:45;;;;;;;5.13;3.10;;;;;;;;;;5071945;28;20293;-25
2024/01/07 17:55:15;;;;;;;4.80;3.00;;;;;;;;;;5074660;28;20220;-26
2024/01/07 17:57:49;;;;;;;4.47;3.33;;;;;;;;;;5075424;28;20282;-28
2024/01/07 18:00:22;;;;;;;6.10;3.53;;;;;;;;;;5076051;28;20193;-26
2024/01/07 18:02:55;;;;;;;4.63;3.37;;;;;;;;;;5067072;28;20204;-27
2024/01/07 18:05:24;;;;;;;4.20;3.23;;;;;;;;;;5067784;28;20229;-28
2024/01/07 18:07:54;;;;;;;5.30;3.87;;;;;;;;;;5063557;28;20220;-27
2024/01/07 18:10:23;;;;;;;3.50;2.67;;;;;;;;;;5075788;28;20201;-26
2024/01/07 18:12:56;;;;;;;4.30;2.80;;;;;;;;;;5068029;28;20233;-26
2024/01/07 18:15:27;;;;;;;5.13;3.47;;;;;;;;;;5074919;28;20315;-28
2024/01/07 18:25:41;;;;;;;4.67;2.27;;;;;;;;;;5045294;28;20287;-30
2024/01/07 18:28:18;;;;;;;5.10;3.90;;;;;;;;;;5055412;28;20213;-37
2024/01/07 18:30:45;;;;;;;11.10;5.40;;;;;;;;;;5055166;28;20209;-36
2024/01/07 18:33:13;;;;;;;3.80;3.40;;;;;;;;;;5052839;28;20237;-36
2024/01/07 18:38:09;;;;;;;2.77;2.30;;;;;;;;;;5049038;28;20222;-34
2024/01/07 18:43:10;;;;;;;2.63;2.43;;;;;;;;;;5033150;28;20282;-39
2024/01/07 18:45:39;;;;;;;4.60;3.43;;;;;;;;;;5027308;28;20222;-30
2024/01/07 18:48:11;;;;;;;2.30;2.10;;;;;;;;;;5033447;28;20202;-39
2024/01/07 18:50:39;;;;;;;5.10;3.87;;;;;;;;;;5034458;28;20229;-34
2024/01/07 18:53:08;;;;;;;5.63;4.40;;;;;;;;;;5029224;28;20241;-33
2024/01/07 18:55:40;;;;;;;4.53;3.40;;;;;;;;;;5028284;28;20230;-33
2024/01/07 18:58:11;;;;;;;4.30;3.33;;;;;;;;;;5034119;28;20207;-34
2024/01/07 19:00:40;;;;;;;4.53;3.43;;;;;;;;;;5033834;28;20207;-34
2024/01/07 19:03:14;;;;;;;5.00;3.80;;;;;;;;;;5020571;28;20213;-30
2024/01/07 19:05:47;;;;;;;5.20;3.40;;;;;;;;;;5022698;28;20230;-34
2024/01/07 19:08:20;;;;;;;5.67;3.83;;;;;;;;;;5029836;28;20256;-33
2024/01/07 19:13:26;;;;;;;4.03;3.50;;;;;;;;;;5071077;28;20213;-35
2024/01/07 19:18:27;;;;;;;4.00;3.57;;;;;;;;;;5073668;28;20232;-35
2024/01/07 19:28:59;;;;;;;4.63;3.30;;;;;;;;;;5050711;28;20218;-28
2024/01/07 19:31:31;;;;;;;5.10;4.00;;;;;;;;;;5049028;28;20209;-27
2024/01/07 19:34:10;;;;;;;3.90;3.50;;;;;;;;;;5047909;28;20201;-28
2024/01/07 19:36:42;;;;;;;3.33;2.80;;;;;;;;;;5046873;28;20751;-26